Time;durP1;ratioP1;P1;durP2;ratioP2;P2;SDS_P1;SDS_P2;PMS_P1;PMS_P2;Temp;Humidity;BMP_temperature;BMP_pressure;BME280_temperature;BME280_humidity;BME280_pressure;Samples;Min_cycle;Max_cycle;Signal;HPM_P1;HPM_P2
2022/05/18 00:00:11;;;;;;;;;;;;;;;23.94;54.61;100931.19;4914809;29;19915;-78
2022/05/18 00:02:58;;;;;;;;;;;;;;;24.08;53.22;100936.69;4912378;29;19915;-79
2022/05/18 00:05:42;;;;;;;;;;;;;;;23.98;53.93;100934.75;4897128;29;20302;-79
2022/05/18 00:08:27;;;;;;;;;;;;;;;24.00;54.13;100937.13;4913230;29;19915;-78
2022/05/18 00:11:13;;;;;;;;;;;;;;;23.99;53.79;100941.88;4912325;29;19915;-77
2022/05/18 00:13:58;;;;;;;;;;;;;;;24.03;53.58;100930.75;4897722;29;19919;-76
2022/05/18 00:16:44;;;;;;;;;;;;;;;24.01;53.59;100933.97;4913802;29;20296;-77
2022/05/18 00:19:32;;;;;;;;;;;;;;;24.10;53.04;100939.09;4898022;29;19915;-77
2022/05/18 00:22:17;;;;;;;;;;;;;;;24.09;52.74;100935.50;4910576;29;19915;-77
2022/05/18 00:25:02;;;;;;;;;;;;;;;23.98;52.67;100939.50;4900970;29;19919;-76
2022/05/18 00:27:47;;;;;;;;;;;;;;;23.95;51.98;100951.44;4912142;29;19916;-78
2022/05/18 00:30:32;;;;;;;;;;;;;;;23.83;52.03;100950.66;4897836;29;19915;-76
2022/05/18 00:33:16;;;;;;;;;;;;;;;23.76;52.17;100952.66;4914289;29;19915;-77
2022/05/18 00:36:01;;;;;;;;;;;;;;;23.73;52.32;100950.66;4912697;29;19916;-76
2022/05/18 00:38:45;;;;;;;;;;;;;;;23.79;52.24;100957.41;4907455;29;19916;-77
2022/05/18 00:41:30;;;;;;;;;;;;;;;23.92;52.34;100938.34;4900982;29;19916;-77
2022/05/18 00:44:15;;;;;;;;;;;;;;;24.00;52.13;100937.91;4912819;29;19919;-77
2022/05/18 00:46:59;;;;;;;;;;;;;;;24.16;51.93;100934.69;4897505;29;19915;-76
2022/05/18 00:49:45;;;;;;;;;;;;;;;24.26;51.65;100940.25;4901132;29;19915;-77
2022/05/18 00:52:42;;;;;;;;;;;;;;;24.18;50.62;100932.31;4914178;29;19915;-78
2022/05/18 00:55:28;;;;;;;;;;;;;;;24.04;49.33;100932.34;4897212;29;20064;-78
2022/05/18 00:58:17;;;;;;;;;;;;;;;23.75;49.89;100928.84;4912696;29;19916;-78
2022/05/18 01:01:01;;;;;;;;;;;;;;;23.68;50.08;100934.41;4898640;29;20298;-77
2022/05/18 01:03:48;;;;;;;;;;;;;;;23.70;50.03;100940.38;4910596;29;19927;-77
2022/05/18 01:06:35;;;;;;;;;;;;;;;23.62;50.67;100938.81;4913998;29;19915;-79
2022/05/18 01:09:23;;;;;;;;;;;;;;;23.49;51.66;100935.63;4910063;29;19915;-78
2022/05/18 01:12:09;;;;;;;;;;;;;;;23.55;52.09;100939.59;4981049;23;19915;-79
2022/05/18 01:15:02;;;;;;;;;;;;;;;23.75;52.10;100940.75;4931240;29;19923;-81
2022/05/18 01:17:49;;;;;;;;;;;;;;;23.94;51.50;100945.06;4934097;29;19915;-81
2022/05/18 01:20:37;;;;;;;;;;;;;;;24.06;50.99;100932.75;4941445;29;19914;-78
2022/05/18 01:23:43;;;;;;;;;;;;;;;24.17;50.96;100942.69;4916027;29;19916;-81
2022/05/18 01:26:44;;;;;;;;;;;;;;;24.14;50.51;100937.06;4942817;28;19977;-81
2022/05/18 01:29:30;;;;;;;;;;;;;;;24.11;50.36;100935.13;4918944;29;19915;-80
2022/05/18 01:32:15;;;;;;;;;;;;;;;24.20;50.36;100938.28;4898771;29;19916;-80
2022/05/18 01:35:00;;;;;;;;;;;;;;;24.23;50.42;100940.25;4908869;29;19915;-80
2022/05/18 01:37:44;;;;;;;;;;;;;;;24.33;50.12;100941.44;4914937;29;19915;-81
2022/05/18 01:40:29;;;;;;;;;;;;;;;24.36;50.08;100941.41;4917664;29;19915;-80
2022/05/18 01:43:22;;;;;;;;;;;;;;;24.41;49.89;100937.41;4907495;29;19919;-80
2022/05/18 01:46:12;;;;;;;;;;;;;;;24.38;49.85;100938.22;4940748;28;19919;-80
2022/05/18 01:48:56;;;;;;;;;;;;;;;24.37;49.65;100945.78;4898415;29;20389;-80
2022/05/18 01:51:44;;;;;;;;;;;;;;;24.36;49.54;100937.84;4898101;29;19915;-79
2022/05/18 01:54:28;;;;;;;;;;;;;;;24.37;49.52;100942.19;4907723;29;19915;-80
2022/05/18 01:57:13;;;;;;;;;;;;;;;24.35;49.32;100939.03;4912831;29;20388;-80
2022/05/18 01:59:57;;;;;;;;;;;;;;;24.34;49.28;100940.22;4908635;29;20328;-80
2022/05/18 02:02:42;;;;;;;;;;;;;;;24.32;48.91;100940.63;4912688;29;19915;-80
2022/05/18 02:05:27;;;;;;;;;;;;;;;24.32;49.17;100946.19;4935612;29;20303;-81
2022/05/18 02:08:12;;;;;;;;;;;;;;;24.31;48.67;100947.38;4938736;29;19915;-81
2022/05/18 02:10:56;;;;;;;;;;;;;;;24.33;48.53;100947.00;4928773;29;20312;-81
2022/05/18 02:13:41;;;;;;;;;;;;;;;24.33;48.35;100947.00;4927095;29;19915;-81
2022/05/18 02:16:27;;;;;;;;;;;;;;;24.09;46.91;100946.63;4903381;29;19915;-81
2022/05/18 02:19:11;;;;;;;;;;;;;;;23.92;46.79;100941.13;4911115;29;19919;-81
2022/05/18 02:21:55;;;;;;;;;;;;;;;23.89;48.09;100948.25;4912565;29;19919;-81
2022/05/18 02:24:40;;;;;;;;;;;;;;;23.98;48.59;100945.06;4940963;29;19919;-81
2022/05/18 02:27:24;;;;;;;;;;;;;;;24.03;48.38;100952.97;4914219;29;19915;-80
2022/05/18 02:30:10;;;;;;;;;;;;;;;24.04;47.88;100949.00;4917126;29;19915;-81
2022/05/18 02:32:55;;;;;;;;;;;;;;;24.04;47.91;100954.56;4904817;29;19919;-81
2022/05/18 02:35:41;;;;;;;;;;;;;;;24.08;48.12;100953.38;4920787;29;19915;-80
2022/05/18 02:38:26;;;;;;;;;;;;;;;24.11;47.65;100949.81;4915921;29;19919;-81
2022/05/18 02:41:11;;;;;;;;;;;;;;;24.12;47.44;100958.94;4914579;29;20307;-81
2022/05/18 02:43:58;;;;;;;;;;;;;;;24.16;47.53;100962.50;4942097;28;19919;-81
2022/05/18 02:46:43;;;;;;;;;;;;;;;24.15;47.43;100953.34;4922289;29;20005;-82
2022/05/18 02:49:28;;;;;;;;;;;;;;;24.11;47.19;100966.47;4920869;29;20292;-81
2022/05/18 02:52:12;;;;;;;;;;;;;;;24.06;47.37;100969.66;4924169;29;19915;-82
2022/05/18 02:58:00;;;;;;;;;;;;;;;24.10;46.99;100962.09;4905018;29;19914;-79
2022/05/18 03:00:44;;;;;;;;;;;;;;;24.05;46.63;100967.28;4919054;29;20320;-81
2022/05/18 03:03:29;;;;;;;;;;;;;;;23.86;47.03;100966.53;4921036;29;19915;-80
2022/05/18 03:06:15;;;;;;;;;;;;;;;23.99;47.45;100974.44;4919319;29;19919;-80
2022/05/18 03:08:59;;;;;;;;;;;;;;;24.02;47.44;100973.66;4919482;29;19922;-79
2022/05/18 03:11:44;;;;;;;;;;;;;;;24.07;46.94;100976.03;4909209;29;19914;-80
2022/05/18 03:14:28;;;;;;;;;;;;;;;24.09;46.84;100982.75;4918742;29;20288;-79
2022/05/18 03:17:13;;;;;;;;;;;;;;;24.08;47.02;100980.34;4921058;29;19915;-81
2022/05/18 03:19:57;;;;;;;;;;;;;;;24.11;46.87;100985.13;4920204;29;19945;-80
2022/05/18 03:25:45;;;;;;;;;;;;;;;24.10;46.70;100991.88;4920985;29;20605;-78
2022/05/18 03:28:29;;;;;;;;;;;;;;;24.04;46.78;100996.25;4919372;29;19915;-79
2022/05/18 03:31:15;;;;;;;;;;;;;;;23.76;45.56;100991.53;4900379;29;19916;-79
2022/05/18 03:33:59;;;;;;;;;;;;;;;23.26;46.76;100996.25;4926529;29;20393;-80
2022/05/18 03:36:44;;;;;;;;;;;;;;;22.96;47.76;101000.16;4928371;29;19915;-79
2022/05/18 03:39:29;;;;;;;;;;;;;;;22.89;47.47;101004.91;4911840;29;19915;-78
2022/05/18 03:42:13;;;;;;;;;;;;;;;22.94;47.72;101004.50;4918539;29;19915;-79
2022/05/18 03:44:58;;;;;;;;;;;;;;;22.69;48.84;101015.50;4918241;29;19919;-79
2022/05/18 03:47:42;;;;;;;;;;;;;;;22.82;48.29;101015.94;4917476;29;20388;-78
2022/05/18 03:50:30;;;;;;;;;;;;;;;22.79;48.57;101025.06;4918033;29;20296;-79
2022/05/18 03:53:15;;;;;;;;;;;;;;;22.74;48.49;101034.56;4919705;29;20308;-78
2022/05/18 03:56:00;;;;;;;;;;;;;;;22.62;48.70;101037.63;4917667;29;19915;-79
2022/05/18 03:58:44;;;;;;;;;;;;;;;22.44;49.59;101037.56;4921594;29;20556;-78
2022/05/18 04:01:29;;;;;;;;;;;;;;;22.52;49.70;101041.16;4912803;29;20392;-79
2022/05/18 04:04:13;;;;;;;;;;;;;;;22.32;50.01;101039.84;4916850;29;20296;-78
2022/05/18 04:06:58;;;;;;;;;;;;;;;22.30;49.52;101053.31;4921630;29;19915;-79
2022/05/18 04:09:45;;;;;;;;;;;;;;;22.02;50.24;101056.66;4919986;29;19915;-78
2022/05/18 04:12:29;;;;;;;;;;;;;;;22.00;50.47;101067.31;4917941;29;19915;-79
2022/05/18 04:15:16;;;;;;;;;;;;;;;22.05;51.04;101066.97;4922050;29;19915;-78
2022/05/18 04:18:00;;;;;;;;;;;;;;;21.92;51.41;101068.44;4919906;29;19915;-78
2022/05/18 04:20:45;;;;;;;;;;;;;;;21.86;51.64;101079.06;4917233;29;20360;-79
2022/05/18 04:23:29;;;;;;;;;;;;;;;22.21;50.93;101075.00;4931754;29;19914;-79
2022/05/18 04:26:14;;;;;;;;;;;;;;;22.33;50.55;101083.00;4919319;29;19919;-78
2022/05/18 04:28:58;;;;;;;;;;;;;;;22.37;50.42;101087.41;4925145;29;19915;-78
2022/05/18 04:31:43;;;;;;;;;;;;;;;22.36;50.95;101096.09;4918868;29;19919;-80
2022/05/18 04:34:27;;;;;;;;;;;;;;;22.40;51.27;101102.47;4928470;29;20320;-78
2022/05/18 04:37:11;;;;;;;;;;;;;;;22.50;51.11;101113.59;4937835;29;19918;-80
2022/05/18 04:39:56;;;;;;;;;;;;;;;22.53;51.31;101112.84;4936416;29;19919;-79
2022/05/18 04:42:40;;;;;;;;;;;;;;;22.58;51.29;101115.25;4920240;29;19915;-80
2022/05/18 04:45:25;;;;;;;;;;;;;;;22.48;51.34;101126.28;4918595;29;20303;-80
2022/05/18 04:48:09;;;;;;;;;;;;;;;22.45;51.54;101118.75;4917063;29;19914;-80
2022/05/18 04:50:54;;;;;;;;;;;;;;;22.54;51.79;101131.06;4918465;29;19914;-78
2022/05/18 04:53:38;;;;;;;;;;;;;;;22.75;51.61;101135.97;4947855;28;19937;-79
2022/05/18 04:56:24;;;;;;;;;;;;;;;22.83;52.09;101140.38;4926925;29;20391;-79
2022/05/18 04:59:09;;;;;;;;;;;;;;;22.62;54.80;101148.53;4923287;29;19915;-79
2022/05/18 05:01:54;;;;;;;;;;;;;;;22.84;53.60;101155.84;4921321;29;19915;-79
2022/05/18 05:04:39;;;;;;;;;;;;;;;22.65;55.96;101147.78;4918753;29;19919;-78
2022/05/18 05:07:24;;;;;;;;;;;;;;;22.62;56.17;101148.53;4922138;29;19915;-78
2022/05/18 05:10:08;;;;;;;;;;;;;;;22.59;57.53;101149.31;4919873;29;20287;-80
2022/05/18 05:12:53;;;;;;;;;;;;;;;22.73;57.31;101154.97;4901061;29;19916;-80
2022/05/18 05:15:38;;;;;;;;;;;;;;;22.89;57.68;101161.00;4900244;29;19916;-81
2022/05/18 05:18:22;;;;;;;;;;;;;;;22.91;56.93;101168.94;4902216;29;19915;-79
2022/05/18 05:21:07;;;;;;;;;;;;;;;22.98;57.77;101169.78;4899672;29;19916;-79
2022/05/18 05:23:51;;;;;;;;;;;;;;;23.11;57.51;101175.00;4910710;29;20400;-79
2022/05/18 05:26:35;;;;;;;;;;;;;;;23.23;57.38;101172.66;4935463;28;19923;-79
2022/05/18 05:29:20;;;;;;;;;;;;;;;23.36;56.62;101181.44;4919158;29;19915;-80
2022/05/18 05:32:06;;;;;;;;;;;;;;;23.55;56.15;101178.38;4930130;29;19919;-78
2022/05/18 05:34:51;;;;;;;;;;;;;;;23.60;55.70;101185.53;4920488;29;19915;-79
2022/05/18 05:37:36;;;;;;;;;;;;;;;23.64;56.27;101186.31;4917656;29;19919;-79
2022/05/18 05:40:20;;;;;;;;;;;;;;;23.68;56.31;101187.91;4917149;29;19915;-79
2022/05/18 05:43:06;;;;;;;;;;;;;;;23.70;55.85;101187.53;4917202;29;19915;-79
2022/05/18 05:45:58;;;;;;;;;;;;;;;23.72;56.40;101188.72;4918188;29;20388;-79
2022/05/18 05:48:44;;;;;;;;;;;;;;;23.86;55.65;101199.09;4916908;29;20376;-78
2022/05/18 05:51:29;;;;;;;;;;;;;;;23.97;55.36;101207.44;4917304;29;19915;-78
2022/05/18 05:54:13;;;;;;;;;;;;;;;23.91;55.54;101204.25;4917096;29;19915;-79
2022/05/18 05:56:58;;;;;;;;;;;;;;;24.06;54.92;101211.41;4916386;29;19915;-79
2022/05/18 05:59:44;;;;;;;;;;;;;;;24.15;54.60;101216.59;4916019;29;19919;-78
2022/05/18 06:02:28;;;;;;;;;;;;;;;24.15;53.90;101220.16;4930120;29;19914;-78
2022/05/18 06:05:13;;;;;;;;;;;;;;;24.21;54.72;101228.94;4922263;29;20304;-78
2022/05/18 06:07:58;;;;;;;;;;;;;;;24.25;53.91;101235.28;4933889;28;19915;-79
2022/05/18 06:10:42;;;;;;;;;;;;;;;24.31;53.88;101236.50;4909720;29;19916;-79
2022/05/18 06:13:28;;;;;;;;;;;;;;;24.32;54.18;101228.94;4937787;29;19934;-78
2022/05/18 06:16:13;;;;;;;;;;;;;;;24.32;53.90;101229.75;4929697;29;19915;-77
2022/05/18 06:18:59;;;;;;;;;;;;;;;24.39;53.28;101238.06;4908924;29;19915;-76
2022/05/18 06:21:46;;;;;;;;;;;;;;;24.44;53.49;101245.22;4919816;29;19915;-77
2022/05/18 06:24:30;;;;;;;;;;;;;;;24.60;54.30;101249.19;4919698;29;19926;-75
2022/05/18 06:27:15;;;;;;;;;;;;;;;24.68;53.90;101247.22;4919503;29;19915;-78
2022/05/18 06:30:00;;;;;;;;;;;;;;;24.65;53.34;101261.91;4913216;29;20384;-89
2022/05/18 06:32:45;;;;;;;;;;;;;;;24.59;53.50;101257.94;4923309;29;20557;-89
2022/05/18 06:35:29;;;;;;;;;;;;;;;24.59;53.29;101261.50;4925598;29;19930;-89
2022/05/18 06:38:14;;;;;;;;;;;;;;;24.68;53.39;101263.91;4920217;29;19914;-88
2022/05/18 06:44:04;;;;;;;;;;;;;;;24.70;53.02;101265.09;4919525;29;19915;-88
2022/05/18 06:46:48;;;;;;;;;;;;;;;24.67;52.61;101277.03;4925220;29;19919;-88
2022/05/18 06:49:33;;;;;;;;;;;;;;;24.73;51.78;101269.09;4919773;29;20376;-88
2022/05/18 06:52:18;;;;;;;;;;;;;;;24.73;51.49;101276.63;4924071;29;19915;-89
2022/05/18 06:55:03;;;;;;;;;;;;;;;24.79;50.38;101278.59;4921499;29;19914;-89
2022/05/18 06:57:48;;;;;;;;;;;;;;;24.78;50.29;101284.56;4937994;29;19915;-88
2022/05/18 07:00:32;;;;;;;;;;;;;;;24.79;50.05;101281.38;4919573;29;20377;-88
2022/05/18 07:03:17;;;;;;;;;;;;;;;24.85;48.70;101287.34;4921116;29;19935;-89
2022/05/18 07:06:02;;;;;;;;;;;;;;;24.93;47.20;101288.97;4919444;29;19919;-89
2022/05/18 07:08:46;;;;;;;;;;;;;;;25.01;46.30;101290.53;4920434;29;19919;-88
2022/05/18 07:11:31;;;;;;;;;;;;;;;25.05;44.96;101294.91;4916271;29;19915;-88
2022/05/18 07:14:19;;;;;;;;;;;;;;;25.45;43.79;101296.41;4999873;23;19923;-82
2022/05/18 07:17:03;;;;;;;;;;;;;;;25.71;41.40;101300.72;4920897;29;19919;-87
2022/05/18 07:19:48;;;;;;;;;;;;;;;25.71;41.28;101299.91;4933659;29;19919;-87
2022/05/18 07:22:32;;;;;;;;;;;;;;;25.66;41.48;101309.50;4936145;29;19915;-87
2022/05/18 07:25:17;;;;;;;;;;;;;;;25.61;41.56;101315.47;4928991;29;19918;-88
2022/05/18 07:28:01;;;;;;;;;;;;;;;25.75;41.04;101323.00;4945191;29;19918;-92
2022/05/18 07:30:47;;;;;;;;;;;;;;;26.07;39.27;101322.84;4920165;29;19915;-80
2022/05/18 07:33:32;;;;;;;;;;;;;;;25.85;40.06;101324.97;4910102;29;19915;-84
2022/05/18 07:36:18;;;;;;;;;;;;;;;25.80;39.11;101322.59;4922826;29;20413;-81
2022/05/18 07:39:02;;;;;;;;;;;;;;;25.96;39.42;101334.03;4919415;29;19914;-81
2022/05/18 07:41:47;;;;;;;;;;;;;;;25.94;39.69;101340.03;4917340;29;19914;-78
2022/05/18 07:44:32;;;;;;;;;;;;;;;26.07;39.47;101342.34;4921023;29;19978;-79
2022/05/18 07:47:16;;;;;;;;;;;;;;;26.05;39.15;101348.38;4918847;29;19915;-79
2022/05/18 07:50:01;;;;;;;;;;;;;;;25.88;39.66;101349.22;4917547;29;19918;-80
2022/05/18 07:52:46;;;;;;;;;;;;;;;25.86;40.65;101346.03;4903511;29;19915;-79
2022/05/18 07:55:30;;;;;;;;;;;;;;;25.87;40.20;101356.78;4921211;29;19928;-79
2022/05/18 07:58:17;;;;;;;;;;;;;;;25.96;39.93;101345.19;4944073;28;19915;-79
2022/05/18 08:01:01;;;;;;;;;;;;;;;25.97;39.31;101361.53;4928417;29;19918;-79
2022/05/18 08:03:47;;;;;;;;;;;;;;;25.92;39.61;101355.56;4926242;29;19914;-79
2022/05/18 08:06:33;;;;;;;;;;;;;;;26.04;39.78;101357.13;4936650;29;19919;-78
2022/05/18 08:09:22;;;;;;;;;;;;;;;26.11;39.92;101355.06;4920363;29;19915;-79
2022/05/18 08:15:10;;;;;;;;;;;;;;;25.98;40.70;101365.91;4928800;29;19915;-79
2022/05/18 08:17:55;;;;;;;;;;;;;;;25.94;40.43;101355.97;4916874;29;20387;-79
2022/05/18 08:20:40;;;;;;;;;;;;;;;25.96;40.19;101364.69;4919120;29;19918;-79
2022/05/18 08:23:25;;;;;;;;;;;;;;;25.97;40.52;101364.31;4916830;29;19915;-79
2022/05/18 08:26:10;;;;;;;;;;;;;;;25.91;40.41;101362.34;4920603;29;19919;-80
2022/05/18 08:28:55;;;;;;;;;;;;;;;25.87;40.29;101367.13;4917295;29;19914;-78
2022/05/18 08:31:39;;;;;;;;;;;;;;;25.96;39.98;101367.50;4921403;29;19923;-78
2022/05/18 08:34:24;;;;;;;;;;;;;;;25.91;39.50;101371.50;4911299;29;19915;-79
2022/05/18 08:37:08;;;;;;;;;;;;;;;25.90;41.26;101374.72;4916955;29;20258;-80
2022/05/18 08:39:53;;;;;;;;;;;;;;;25.92;41.13;101372.28;4921228;29;19915;-79
2022/05/18 08:42:41;;;;;;;;;;;;;;;26.04;40.07;101376.63;4917017;29;19915;-78
2022/05/18 08:45:29;;;;;;;;;;;;;;;26.04;40.45;101377.44;4917053;29;19919;-79
2022/05/18 08:48:15;;;;;;;;;;;;;;;26.08;40.01;101381.00;4916750;29;20474;-78
2022/05/18 08:51:04;;;;;;;;;;;;;;;26.06;40.24;101385.41;4919031;29;19915;-78
2022/05/18 08:54:08;;;;;;;;;;;;;;;26.03;39.97;101389.78;4915047;29;19915;-78
2022/05/18 08:56:54;;;;;;;;;;;;;;;26.12;39.39;101386.53;4908845;29;20394;-79
2022/05/18 08:59:39;;;;;;;;;;;;;;;26.31;38.31;101392.44;4918627;29;19915;-79
2022/05/18 09:02:28;;;;;;;;;;;;;;;26.42;38.43;101388.81;4916673;29;19915;-79
2022/05/18 09:05:34;;;;;;;;;;;;;;;26.48;38.59;101390.78;4919534;29;19919;-78
2022/05/18 09:08:25;;;;;;;;;;;;;;;26.56;39.22;101388.75;4916870;29;19919;-79
2022/05/18 09:11:16;;;;;;;;;;;;;;;26.58;38.93;101386.31;4920425;29;20309;-80
2022/05/18 09:14:01;;;;;;;;;;;;;;;26.59;38.72;101399.09;4914027;29;19915;-79
2022/05/18 09:17:01;;;;;;;;;;;;;;;26.55;38.57;101393.53;4940890;28;20315;-78
2022/05/18 09:20:01;;;;;;;;;;;;;;;27.01;38.91;101398.03;4919490;29;19915;-79
2022/05/18 09:22:47;;;;;;;;;;;;;;;27.10;38.06;101396.34;4917206;29;19919;-79
2022/05/18 09:25:32;;;;;;;;;;;;;;;27.15;37.68;101390.31;4921618;29;19919;-79
2022/05/18 09:28:26;;;;;;;;;;;;;;;27.18;38.32;101400.66;4915804;29;19915;-78
2022/05/18 09:31:29;;;;;;;;;;;;;;;27.30;38.68;101404.94;4916656;29;19919;-79
2022/05/18 09:34:28;;;;;;;;;;;;;;;27.18;39.01;101411.03;4919947;29;19915;-79
2022/05/18 09:37:16;;;;;;;;;;;;;;;27.04;40.08;101411.94;4903536;29;19919;-79
2022/05/18 09:40:06;;;;;;;;;;;;;;;27.38;39.94;101414.84;4915150;29;20309;-79
2022/05/18 09:42:55;;;;;;;;;;;;;;;27.50;39.31;101410.78;4905202;29;19919;-79
2022/05/18 09:45:42;;;;;;;;;;;;;;;27.63;38.88;101409.06;4916510;29;19918;-78
2022/05/18 09:48:37;;;;;;;;;;;;;;;27.45;39.15;101406.41;4916931;29;19915;-78
2022/05/18 09:51:23;;;;;;;;;;;;;;;27.68;38.22;101411.41;4916813;29;19919;-78
2022/05/18 09:54:07;;;;;;;;;;;;;;;27.83;37.46;101414.84;4921703;29;20424;-78
2022/05/18 09:56:58;;;;;;;;;;;;;;;27.86;37.05;101414.00;4919699;29;19914;-79
2022/05/18 09:59:49;;;;;;;;;;;;;;;27.74;37.26;101420.09;4920962;29;19915;-79
2022/05/18 10:08:43;;;;;;;;;;;;;;;27.32;37.98;101418.50;4923578;29;19915;-79
2022/05/18 10:11:33;;;;;;;;;;;;;;;27.24;39.39;101407.38;4944026;28;19919;-77
2022/05/18 10:14:32;;;;;;;;;;;;;;;27.24;39.03;101428.94;4916681;29;20406;-78
2022/05/18 10:17:21;;;;;;;;;;;;;;;27.22;38.38;101420.19;4903386;29;19915;-80
2022/05/18 10:20:08;;;;;;;;;;;;;;;27.08;38.93;101414.69;4921508;29;19915;-83
2022/05/18 10:22:53;;;;;;;;;;;;;;;27.02;39.14;101431.09;4941465;29;19914;-84
2022/05/18 10:25:48;;;;;;;;;;;;;;;27.04;38.55;101423.13;4935396;29;20313;-83
2022/05/18 10:28:33;;;;;;;;;;;;;;;27.11;38.93;101425.06;4928206;29;19915;-83
2022/05/18 10:31:29;;;;;;;;;;;;;;;27.21;39.17;101424.97;4964071;28;19914;-83
2022/05/18 10:34:25;;;;;;;;;;;;;;;27.35;38.61;101418.47;4905399;29;19915;-83
2022/05/18 10:37:11;;;;;;;;;;;;;;;27.44;39.06;101426.38;4926260;29;19915;-83
2022/05/18 10:39:59;;;;;;;;;;;;;;;27.38;39.64;101419.66;4944000;28;19915;-85
2022/05/18 10:42:52;;;;;;;;;;;;;;;27.39;40.48;101418.44;4922773;29;19915;-82
2022/05/18 10:45:37;;;;;;;;;;;;;;;27.50;39.90;101411.56;4956446;28;19923;-83
2022/05/18 10:48:23;;;;;;;;;;;;;;;27.47;40.08;101419.97;4921191;29;19919;-84
2022/05/18 10:51:11;;;;;;;;;;;;;;;27.78;39.62;101412.50;4932075;29;19915;-83
2022/05/18 10:54:07;;;;;;;;;;;;;;;27.89;39.58;101416.72;4934789;29;19914;-84
2022/05/18 10:56:53;;;;;;;;;;;;;;;27.85;40.11;101416.00;4935265;29;19915;-84
2022/05/18 10:59:43;;;;;;;;;;;;;;;27.94;39.31;101410.69;4918690;29;19915;-84
2022/05/18 11:02:47;;;;;;;;;;;;;;;28.09;39.50;101409.31;4941018;28;19915;-84
2022/05/18 11:05:38;;;;;;;;;;;;;;;28.15;39.31;101417.25;4911408;29;19923;-83
2022/05/18 11:08:24;;;;;;;;;;;;;;;28.11;39.18;101408.09;4912485;29;19919;-83
2022/05/18 11:11:15;;;;;;;;;;;;;;;28.42;38.77;101413.31;4931118;29;19915;-84
2022/05/18 11:14:12;;;;;;;;;;;;;;;28.31;38.47;101406.28;4927684;29;20297;-84
2022/05/18 11:17:02;;;;;;;;;;;;;;;28.53;37.53;101415.97;4963529;28;19915;-84
2022/05/18 11:20:06;;;;;;;;;;;;;;;28.42;38.08;101409.72;4948872;28;20289;-84
2022/05/18 11:23:09;;;;;;;;;;;;;;;28.50;38.31;101412.00;4921855;29;19914;-83
2022/05/18 11:26:01;;;;;;;;;;;;;;;28.35;38.61;101407.00;4950603;28;19919;-83
2022/05/18 11:28:55;;;;;;;;;;;;;;;28.53;38.03;101407.56;4947109;28;19915;-80
2022/05/18 11:32:06;;;;;;;;;;;;;;;28.49;38.47;101404.03;4899561;29;19916;-82
2022/05/18 11:35:10;;;;;;;;;;;;;;;28.46;39.19;101407.66;4930036;29;19915;-82
2022/05/18 11:38:13;;;;;;;;;;;;;;;28.42;39.09;101409.72;4927580;29;19915;-80
2022/05/18 11:41:04;;;;;;;;;;;;;;;28.49;38.86;101401.25;4930898;29;19915;-83
2022/05/18 11:43:58;;;;;;;;;;;;;;;28.47;40.02;101409.25;4938122;28;19915;-81
2022/05/18 11:46:53;;;;;;;;;;;;;;;28.43;39.54;101408.50;4944215;28;19923;-81
2022/05/18 11:49:50;;;;;;;;;;;;;;;28.66;39.04;101394.56;4913315;29;19915;-83
2022/05/18 11:52:49;;;;;;;;;;;;;;;28.76;38.85;101396.44;4948547;28;19915;-83
2022/05/18 11:55:50;;;;;;;;;;;;;;;28.86;38.88;101406.69;4895644;29;19924;-83
2022/05/18 11:58:52;;;;;;;;;;;;;;;28.99;38.19;101400.50;4936377;29;19914;-84
2022/05/18 12:01:46;;;;;;;;;;;;;;;28.86;38.86;101394.69;4936687;29;19919;-84
2022/05/18 12:04:43;;;;;;;;;;;;;;;28.87;38.39;101397.06;4944416;28;19915;-83
2022/05/18 12:07:49;;;;;;;;;;;;;;;28.87;38.24;101393.47;4918460;29;19919;-84
2022/05/18 12:10:49;;;;;;;;;;;;;;;28.85;38.65;101396.69;4921690;29;19915;-85
2022/05/18 12:13:53;;;;;;;;;;;;;;;29.03;38.66;101390.03;4918482;29;20370;-84
2022/05/18 12:16:56;;;;;;;;;;;;;;;29.30;37.06;101385.97;4921413;29;19914;-84
2022/05/18 12:19:57;;;;;;;;;;;;;;;29.26;36.48;101395.63;4919637;29;19915;-83
2022/05/18 12:22:49;;;;;;;;;;;;;;;29.32;36.73;101389.13;4903812;29;19923;-84
2022/05/18 12:25:35;;;;;;;;;;;;;;;29.24;36.39;101390.47;4915481;29;19920;-84
2022/05/18 12:28:19;;;;;;;;;;;;;;;29.28;36.52;101391.19;4917783;29;19919;-84
2022/05/18 12:31:05;;;;;;;;;;;;;;;29.32;36.65;101386.34;4922164;29;19915;-85
2022/05/18 12:34:08;;;;;;;;;;;;;;;29.37;37.61;101387.84;4917971;29;19923;-85
2022/05/18 12:36:54;;;;;;;;;;;;;;;29.31;37.37;101397.97;4917257;29;19919;-84
2022/05/18 12:39:47;;;;;;;;;;;;;;;29.25;36.25;101392.06;4918109;29;19915;-85
2022/05/18 12:42:33;;;;;;;;;;;;;;;29.26;36.75;101390.00;4918909;29;19915;-86
2022/05/18 12:45:40;;;;;;;;;;;;;;;29.29;36.12;101391.97;4913278;29;19919;-85
2022/05/18 12:48:30;;;;;;;;;;;;;;;29.38;36.04;101397.84;4919240;29;19915;-85
2022/05/18 12:51:41;;;;;;;;;;;;;;;29.40;35.61;101386.22;4932526;29;19915;-85
2022/05/18 12:54:41;;;;;;;;;;;;;;;29.37;36.06;101379.44;4944211;28;19915;-85
2022/05/18 12:57:47;;;;;;;;;;;;;;;29.42;36.87;101381.75;4915973;29;19923;-84
2022/05/18 13:00:32;;;;;;;;;;;;;;;29.38;37.59;101386.63;4966462;28;19919;-85
2022/05/18 13:03:16;;;;;;;;;;;;;;;29.65;35.97;101380.94;4965290;28;19914;-84
2022/05/18 13:06:09;;;;;;;;;;;;;;;29.42;36.58;101378.94;4939281;28;19919;-84
2022/05/18 13:08:55;;;;;;;;;;;;;;;29.45;37.51;101383.72;4917793;29;20374;-84
2022/05/18 13:11:43;;;;;;;;;;;;;;;29.51;37.28;101387.59;4917337;29;19915;-84
2022/05/18 13:14:34;;;;;;;;;;;;;;;29.55;35.52;101382.72;4947598;23;20309;-78
2022/05/18 13:17:20;;;;;;;;;;;;;;;29.52;35.90;101374.34;4934647;29;19923;-79
2022/05/18 13:20:25;;;;;;;;;;;;;;;29.61;35.22;101380.97;4931964;29;19914;-79
2022/05/18 13:23:23;;;;;;;;;;;;;;;29.56;35.92;101367.47;4915795;29;20289;-78
2022/05/18 13:26:22;;;;;;;;;;;;;;;29.60;36.65;101379.44;4943720;28;19918;-78
2022/05/18 13:29:15;;;;;;;;;;;;;;;29.80;36.38;101368.22;4947113;28;19915;-79
2022/05/18 13:32:06;;;;;;;;;;;;;;;29.64;36.25;101373.75;4941839;29;19914;-78
2022/05/18 13:35:07;;;;;;;;;;;;;;;29.76;36.92;101373.09;4930073;29;20187;-79
2022/05/18 13:38:12;;;;;;;;;;;;;;;29.59;37.14;101368.63;4939975;29;20285;-79
2022/05/18 13:41:01;;;;;;;;;;;;;;;29.42;37.06;101366.94;4934788;29;19915;-78
2022/05/18 13:43:46;;;;;;;;;;;;;;;29.25;37.60;101375.25;4934952;29;20370;-79
2022/05/18 13:46:31;;;;;;;;;;;;;;;29.21;37.43;101368.09;4938851;29;20013;-79
2022/05/18 13:49:19;;;;;;;;;;;;;;;29.07;37.29;101377.53;4930782;29;19914;-78
2022/05/18 13:52:07;;;;;;;;;;;;;;;29.08;36.89;101364.34;4940381;28;19915;-78
2022/05/18 13:54:54;;;;;;;;;;;;;;;29.03;36.33;101373.22;4934258;29;20386;-79
2022/05/18 13:57:41;;;;;;;;;;;;;;;29.03;36.52;101373.22;4933976;29;20297;-79
2022/05/18 14:00:31;;;;;;;;;;;;;;;29.06;36.70;101361.16;4935224;29;19915;-79
2022/05/18 14:03:17;;;;;;;;;;;;;;;29.05;36.52;101357.59;4934798;29;20362;-78
2022/05/18 14:06:04;;;;;;;;;;;;;;;29.02;35.77;101366.81;4936520;29;19919;-79
2022/05/18 14:08:50;;;;;;;;;;;;;;;28.89;35.88;101352.66;4932604;29;19915;-78
2022/05/18 14:11:36;;;;;;;;;;;;;;;28.88;36.65;101356.66;4936328;28;19914;-78
2022/05/18 14:14:21;;;;;;;;;;;;;;;28.88;36.39;101353.84;4937237;28;19918;-79
2022/05/18 14:17:16;;;;;;;;;;;;;;;28.77;36.18;101346.84;4941555;28;19915;-79
2022/05/18 14:20:08;;;;;;;;;;;;;;;28.77;36.43;101344.84;4940842;28;20389;-78
2022/05/18 14:22:55;;;;;;;;;;;;;;;28.72;36.78;101350.91;4936244;29;19915;-78
2022/05/18 14:25:42;;;;;;;;;;;;;;;28.72;36.11;101350.13;4934545;29;19918;-78
2022/05/18 14:28:29;;;;;;;;;;;;;;;28.76;36.23;101348.84;4930858;29;19914;-79
2022/05/18 14:31:18;;;;;;;;;;;;;;;28.60;35.89;101362.66;4930188;29;19915;-78
2022/05/18 14:34:05;;;;;;;;;;;;;;;28.57;36.59;101357.94;4942209;29;20372;-79
2022/05/18 14:36:51;;;;;;;;;;;;;;;28.60;36.66;101351.47;4926909;29;19915;-78
2022/05/18 14:39:37;;;;;;;;;;;;;;;28.60;36.59;101359.88;4925001;29;19919;-79